Meteo Giornale » Osservazioni meteo Stati Uniti (USA) » Salina
ore: 14:53 - Osservazioni Meteo Salina
Lat. 38° 46' N Lon. 97° 38' W Alt. 387 metri s.l.m.
39 °C
Sereno
Temp. 24 Ore
24 °C
41 °C
Sud
20.3 Km/h
Dew point 14 °C
Umidità 22 %
Visibilità 10 Km
Il sole sorge alle ore 06:59
Il sole tramonta alle ore 20:01
| Data e Ora | Cielo e Fenomeni | T °C | DP °C | Um. % | Pres. hPa | Vis. km | Vento km/h | |
|---|---|---|---|---|---|---|---|---|
| Oggi h: 14:53 | Sereno | 39 | 14 | 22 | 1013 | 10 | S 20.3 | |
| Oggi h: 13:53 | Sereno | 39 | 14 | 22 | 1014 | 10 | S 31.5 | |
| Oggi h: 12:53 | Sereno | 38 | 14 | 24 | 1014 | 10 | S/SO 31.5 | |
| Oggi h: 11:53 | Sereno | 36 | 14 | 26 | 1015 | 10 | SO 25.9 | |
| Oggi h: 10:53 | Sereno | 34 | 14 | 30 | 1015 | 10 | SO 24 | |
| Oggi h: 09:53 | Sereno | 32 | 14 | 33 | 1015 | 10 | S/SO 24 | |
| Oggi h: 08:53 | Nuvoloso | 29 | 14 | 39 | 1015 | 10 | S/SO 25.9 | |
| Oggi h: 07:53 | Sereno | 26 | 14 | 47 | 1015 | 10 | S/SO 16.7 | |
| Oggi h: 06:53 | Sereno | 24 | 14 | 53 | 1015 | 10 | S 13 | |
| Oggi h: 05:53 | Sereno | 25 | 14 | 50 | 1015 | 10 | S 13 | |
| Oggi h: 04:53 | Sereno | 26 | 14 | 47 | 1015 | 10 | S 14.8 | |
| Oggi h: 03:53 | Sereno | 27 | 14 | 44 | 1014 | 10 | S 13 | |
| Oggi h: 02:53 | Sereno | 29 | 14 | 39 | 1014 | 10 | S 22.2 | |
| Oggi h: 01:53 | Sereno | 29 | 15 | 42 | 1014 | 10 | S 18.5 | |
| Oggi h: 00:53 | Sereno | 30 | 15 | 40 | 1014 | 10 | S 25.9 | |
| Ieri h: 23:53 | Sereno | 29 | 15 | 42 | 1014 | 10 | S/SE 16.7 | |
| Ieri h: 22:53 | Sereno | 31 | 14 | 35 | 1014 | 10 | S 20.3 | |
| Ieri h: 21:53 | Sereno | 31 | 14 | 35 | 1013 | 10 | S/SE 18.5 | |
| Ieri h: 20:53 | Sereno | 32 | 13 | 31 | 1012 | 10 | S/SE 18.5 | |
| Ieri h: 19:53 | Sereno | 35 | 13 | 26 | 1011 | 10 | S/SE 18.5 | |
| Ieri h: 18:53 | Sereno | 38 | 14 | 24 | 1011 | 10 | S 18.5 | |
| Ieri h: 17:53 | Sereno | 39 | 14 | 22 | 1011 | 10 | S/SE 27.8 | |
| Ieri h: 16:53 | Sereno | 40 | 14 | 21 | 1012 | 10 | S 18.5 | |
| Ieri h: 15:53 | Sereno | 41 | 15 | 21 | 1012 | 10 | S 25.9 | |



